Time;durP1;ratioP1;P1;durP2;ratioP2;P2;SDS_P1;SDS_P2;PMS_P1;PMS_P2;Temp;Humidity;BMP_temperature;BMP_pressure;BME280_temperature;BME280_humidity;BME280_pressure;Samples;Min_cycle;Max_cycle;Signal;HPM_P1;HPM_P2
2022/04/12 00:00:57;;;;;;;9.55;4.90;;;;;;;;;;5052846;28;20031;-74
2022/04/12 00:03:23;;;;;;;8.07;4.97;;;;;;;;;;5034718;28;20021;-74
2022/04/12 00:05:51;;;;;;;8.98;5.20;;;;;;;;;;5052667;28;20475;-74
2022/04/12 00:08:17;;;;;;;8.85;4.82;;;;;;;;;;5052612;28;20045;-75
2022/04/12 00:10:43;;;;;;;9.63;4.53;;;;;;;;;;5052431;28;20025;-75
2022/04/12 00:13:09;;;;;;;11.07;5.35;;;;;;;;;;5053655;28;20063;-75
2022/04/12 00:15:35;;;;;;;9.73;5.22;;;;;;;;;;5072460;28;20025;-75
2022/04/12 00:20:46;;;;;;;9.50;4.97;;;;;;;;;;5072501;28;20043;-75
2022/04/12 00:23:14;;;;;;;6.45;4.18;;;;;;;;;;5072388;28;20046;-74
2022/04/12 00:25:42;;;;;;;14.10;4.45;;;;;;;;;;5072249;28;20055;-74
2022/04/12 00:28:08;;;;;;;10.73;4.47;;;;;;;;;;5072486;28;20043;-74
2022/04/12 00:30:35;;;;;;;7.72;4.18;;;;;;;;;;5072140;28;20024;-74
2022/04/12 00:33:01;;;;;;;8.63;5.03;;;;;;;;;;5072365;28;20016;-75
2022/04/12 00:35:27;;;;;;;12.27;4.75;;;;;;;;;;5072211;28;20241;-74
2022/04/12 00:37:54;;;;;;;7.47;4.25;;;;;;;;;;5072196;28;20028;-75
2022/04/12 00:40:20;;;;;;;7.20;4.20;;;;;;;;;;5072196;28;20030;-74
2022/04/12 00:42:47;;;;;;;7.05;4.20;;;;;;;;;;5071932;28;20024;-74
2022/04/12 00:45:13;;;;;;;11.77;5.10;;;;;;;;;;5072099;28;20039;-74
2022/04/12 00:47:39;;;;;;;7.60;4.47;;;;;;;;;;5072077;28;20024;-74
2022/04/12 00:50:06;;;;;;;8.70;4.43;;;;;;;;;;5071975;28;20024;-74
2022/04/12 00:52:37;;;;;;;10.82;3.78;;;;;;;;;;5071917;28;20033;-74
2022/04/12 00:55:04;;;;;;;8.20;4.32;;;;;;;;;;5072082;28;20362;-75
2022/04/12 00:57:31;;;;;;;7.38;4.45;;;;;;;;;;5071947;28;20016;-74
2022/04/12 00:59:59;;;;;;;13.77;5.60;;;;;;;;;;5072004;28;20021;-74
2022/04/12 01:02:25;;;;;;;7.10;4.03;;;;;;;;;;5071980;28;20037;-74
2022/04/12 01:04:51;;;;;;;7.75;4.15;;;;;;;;;;5071815;28;20028;-74
2022/04/12 01:07:18;;;;;;;10.95;5.10;;;;;;;;;;5071625;28;20025;-74
2022/04/12 01:09:44;;;;;;;7.63;4.25;;;;;;;;;;5071768;28;20056;-75
2022/04/12 01:12:11;;;;;;;7.00;3.83;;;;;;;;;;5071510;28;20397;-74
2022/04/12 01:14:37;;;;;;;10.02;4.50;;;;;;;;;;5071688;28;20036;-75
2022/04/12 01:17:05;;;;;;;7.85;4.20;;;;;;;;;;5071823;28;20112;-75
2022/04/12 01:19:31;;;;;;;15.00;4.32;;;;;;;;;;5071733;28;20092;-75
2022/04/12 01:22:05;;;;;;;12.05;4.55;;;;;;;;;;5071603;28;20025;-74
2022/04/12 01:24:34;;;;;;;7.93;4.07;;;;;;;;;;5072053;28;20111;-74
2022/04/12 01:27:00;;;;;;;7.97;4.25;;;;;;;;;;5071641;28;20096;-75
2022/04/12 01:29:27;;;;;;;7.15;4.15;;;;;;;;;;5071586;28;20032;-74
2022/04/12 01:31:53;;;;;;;8.32;4.45;;;;;;;;;;5075442;28;20103;-74
2022/04/12 01:34:19;;;;;;;9.13;3.92;;;;;;;;;;5075699;28;20043;-74
2022/04/12 01:36:45;;;;;;;7.63;4.40;;;;;;;;;;5075550;28;20023;-75
2022/04/12 01:39:11;;;;;;;8.43;4.40;;;;;;;;;;5075526;28;20028;-74
2022/04/12 01:41:37;;;;;;;8.77;3.85;;;;;;;;;;5075418;28;20025;-75
2022/04/12 01:44:03;;;;;;;10.45;4.05;;;;;;;;;;5075500;28;20111;-74
2022/04/12 01:46:29;;;;;;;12.52;3.70;;;;;;;;;;5075390;28;20028;-74
2022/04/12 01:48:55;;;;;;;7.28;3.80;;;;;;;;;;5075543;28;20028;-74
2022/04/12 01:51:21;;;;;;;9.25;4.13;;;;;;;;;;5075299;28;20028;-74
2022/04/12 01:53:47;;;;;;;8.20;4.10;;;;;;;;;;5075417;28;20482;-74
2022/04/12 01:56:13;;;;;;;8.00;3.72;;;;;;;;;;5075111;28;20383;-74
2022/04/12 01:58:42;;;;;;;13.10;3.80;;;;;;;;;;5075226;28;20032;-74
2022/04/12 02:01:08;;;;;;;7.68;4.28;;;;;;;;;;5075337;28;20033;-74
2022/04/12 02:03:34;;;;;;;7.68;4.22;;;;;;;;;;5075178;28;20116;-75
2022/04/12 02:06:00;;;;;;;8.50;3.42;;;;;;;;;;5075014;28;20091;-74
2022/04/12 02:08:26;;;;;;;13.18;4.38;;;;;;;;;;5074929;28;20048;-74
2022/04/12 02:10:53;;;;;;;7.20;3.58;;;;;;;;;;5074748;28;20036;-74
2022/04/12 02:13:19;;;;;;;7.60;3.85;;;;;;;;;;5074836;28;20029;-74
2022/04/12 02:15:45;;;;;;;7.78;3.60;;;;;;;;;;5074881;28;20024;-74
2022/04/12 02:18:11;;;;;;;8.50;3.38;;;;;;;;;;5074962;28;20358;-74
2022/04/12 02:20:37;;;;;;;6.95;3.70;;;;;;;;;;5074736;28;20028;-74
2022/04/12 02:23:03;;;;;;;8.88;3.83;;;;;;;;;;5074582;28;20032;-74
2022/04/12 02:25:29;;;;;;;8.95;3.70;;;;;;;;;;5074642;28;20034;-74
2022/04/12 02:27:55;;;;;;;7.72;3.85;;;;;;;;;;5074634;28;20028;-75
2022/04/12 02:30:21;;;;;;;10.02;4.65;;;;;;;;;;5074403;28;20017;-75
2022/04/12 02:32:47;;;;;;;10.20;3.83;;;;;;;;;;5074668;28;20059;-74
2022/04/12 02:35:13;;;;;;;8.55;3.90;;;;;;;;;;5074610;28;20020;-74
2022/04/12 02:37:39;;;;;;;8.25;3.50;;;;;;;;;;5074430;28;20028;-74
2022/04/12 02:40:05;;;;;;;8.10;4.38;;;;;;;;;;5074527;28;20120;-74
2022/04/12 02:42:31;;;;;;;8.48;3.85;;;;;;;;;;5058197;28;20040;-74
2022/04/12 02:44:57;;;;;;;6.40;4.18;;;;;;;;;;5054355;28;20025;-74
2022/04/12 02:47:25;;;;;;;7.40;4.10;;;;;;;;;;5054292;28;20505;-74
2022/04/12 02:49:51;;;;;;;10.70;4.18;;;;;;;;;;5054228;28;20379;-74
2022/04/12 02:52:17;;;;;;;7.95;4.63;;;;;;;;;;5053990;28;20043;-74
2022/04/12 02:54:43;;;;;;;8.77;4.35;;;;;;;;;;5054174;28;20104;-75
2022/04/12 02:57:09;;;;;;;8.25;4.00;;;;;;;;;;5053960;28;20048;-74
2022/04/12 02:59:36;;;;;;;6.80;3.90;;;;;;;;;;5054113;28;20057;-74
2022/04/12 03:02:02;;;;;;;8.95;3.80;;;;;;;;;;5054021;28;20021;-74
2022/04/12 03:04:28;;;;;;;7.85;3.72;;;;;;;;;;5053995;28;20071;-74
2022/04/12 03:06:54;;;;;;;8.52;3.85;;;;;;;;;;5053947;28;20036;-74
2022/04/12 03:09:20;;;;;;;8.55;4.03;;;;;;;;;;5053752;28;20049;-74
2022/04/12 03:11:46;;;;;;;8.45;3.97;;;;;;;;;;5053682;28;20447;-74
2022/04/12 03:14:12;;;;;;;8.02;3.83;;;;;;;;;;5063243;28;20370;-74
2022/04/12 03:16:38;;;;;;;7.78;3.92;;;;;;;;;;5073793;28;20029;-74
2022/04/12 03:19:04;;;;;;;7.30;3.67;;;;;;;;;;5073713;28;20021;-74
2022/04/12 03:21:30;;;;;;;8.35;4.22;;;;;;;;;;5073632;28;20081;-74
2022/04/12 03:23:56;;;;;;;8.05;4.13;;;;;;;;;;5073786;28;20170;-75
2022/04/12 03:26:22;;;;;;;6.57;3.65;;;;;;;;;;5073482;28;20479;-74
2022/04/12 03:28:48;;;;;;;9.73;3.72;;;;;;;;;;5073514;28;20029;-74
2022/04/12 03:31:14;;;;;;;6.68;4.00;;;;;;;;;;5073353;28;20028;-74
2022/04/12 03:33:40;;;;;;;8.10;3.80;;;;;;;;;;5073401;28;20031;-74
2022/04/12 03:36:06;;;;;;;8.48;4.18;;;;;;;;;;5073264;28;20017;-75
2022/04/12 03:38:35;;;;;;;10.85;3.78;;;;;;;;;;5073414;28;20021;-75
2022/04/12 03:41:03;;;;;;;10.18;4.35;;;;;;;;;;5073080;28;20031;-74
2022/04/12 03:43:29;;;;;;;7.38;3.58;;;;;;;;;;5073321;28;20024;-74
2022/04/12 03:45:55;;;;;;;7.20;3.70;;;;;;;;;;5073143;28;20036;-75
2022/04/12 03:48:21;;;;;;;12.35;4.40;;;;;;;;;;5073169;28;20459;-74
2022/04/12 03:50:47;;;;;;;7.80;3.38;;;;;;;;;;5072952;28;20506;-74
2022/04/12 03:53:13;;;;;;;8.20;3.70;;;;;;;;;;5072865;28;20024;-75
2022/04/12 03:55:40;;;;;;;7.55;3.78;;;;;;;;;;5072841;28;20020;-74
2022/04/12 03:58:07;;;;;;;8.10;4.75;;;;;;;;;;5073051;28;20103;-74
2022/04/12 04:00:33;;;;;;;6.10;3.33;;;;;;;;;;5072858;28;20031;-75
2022/04/12 04:03:00;;;;;;;5.75;3.72;;;;;;;;;;5072838;28;20029;-74
2022/04/12 04:05:26;;;;;;;7.57;3.97;;;;;;;;;;5072749;28;20064;-74
2022/04/12 04:07:53;;;;;;;9.32;3.80;;;;;;;;;;5072595;28;20035;-74
2022/04/12 04:10:19;;;;;;;10.13;4.32;;;;;;;;;;5072712;28;20025;-74
2022/04/12 04:12:45;;;;;;;6.07;3.95;;;;;;;;;;5072656;28;20099;-74
2022/04/12 04:15:14;;;;;;;8.38;4.00;;;;;;;;;;5072408;28;20093;-74
2022/04/12 04:17:47;;;;;;;8.80;4.05;;;;;;;;;;5072633;28;20024;-74
2022/04/12 04:20:13;;;;;;;;;;;;;;;;;;5072961;28;20032;-74
2022/04/12 04:22:40;;;;;;;10.07;4.28;;;;;;;;;;5072227;28;19904;-74
2022/04/12 04:25:07;;;;;;;8.88;4.47;;;;;;;;;;5072362;28;20104;-74
2022/04/12 04:27:34;;;;;;;7.68;3.80;;;;;;;;;;5072250;28;20043;-74
2022/04/12 04:30:00;;;;;;;9.70;4.53;;;;;;;;;;5072363;28;20027;-74
2022/04/12 04:32:26;;;;;;;8.85;4.07;;;;;;;;;;5072277;28;20028;-74
2022/04/12 04:34:52;;;;;;;7.78;4.25;;;;;;;;;;5072248;28;20090;-74
2022/04/12 04:37:18;;;;;;;8.95;4.10;;;;;;;;;;5072082;28;20479;-74
2022/04/12 04:39:45;;;;;;;9.50;3.63;;;;;;;;;;5072060;28;20025;-74
2022/04/12 04:42:11;;;;;;;9.23;3.50;;;;;;;;;;5072025;28;20020;-74
2022/04/12 04:44:37;;;;;;;6.70;3.63;;;;;;;;;;5072123;28;20028;-74
2022/04/12 04:47:03;;;;;;;7.10;3.67;;;;;;;;;;5072091;28;20475;-74
2022/04/12 04:49:29;;;;;;;11.07;4.25;;;;;;;;;;5072090;28;20406;-74
2022/04/12 04:51:55;;;;;;;10.98;4.10;;;;;;;;;;5071935;28;20028;-74
2022/04/12 04:54:21;;;;;;;16.25;3.85;;;;;;;;;;5072025;28;20023;-74
2022/04/12 04:56:47;;;;;;;9.63;4.20;;;;;;;;;;5071858;28;20024;-75
2022/04/12 04:59:13;;;;;;;12.98;3.75;;;;;;;;;;5071823;28;20025;-74
2022/04/12 05:01:40;;;;;;;7.07;4.43;;;;;;;;;;5072145;28;20090;-74
2022/04/12 05:04:06;;;;;;;7.60;3.90;;;;;;;;;;5071718;28;20029;-74
2022/04/12 05:06:32;;;;;;;10.32;4.40;;;;;;;;;;5071369;28;20028;-74
2022/04/12 05:08:58;;;;;;;7.70;3.97;;;;;;;;;;5071615;28;20063;-74
2022/04/12 05:11:24;;;;;;;9.15;4.35;;;;;;;;;;5071723;28;20036;-74
2022/04/12 05:13:50;;;;;;;9.57;4.22;;;;;;;;;;5071645;28;20095;-74
2022/04/12 05:16:16;;;;;;;8.25;3.95;;;;;;;;;;5071629;28;20016;-74
2022/04/12 05:18:42;;;;;;;9.50;4.18;;;;;;;;;;5071738;28;20056;-74
2022/04/12 05:21:08;;;;;;;9.65;4.57;;;;;;;;;;5050200;28;20617;-74
2022/04/12 05:23:34;;;;;;;10.82;4.43;;;;;;;;;;5050288;28;20094;-74
2022/04/12 05:26:00;;;;;;;12.07;4.50;;;;;;;;;;5051582;28;20029;-75
2022/04/12 05:28:26;;;;;;;11.82;4.35;;;;;;;;;;5051758;28;20037;-74
2022/04/12 05:30:52;;;;;;;11.32;4.15;;;;;;;;;;5053384;28;20032;-74
2022/04/12 05:33:19;;;;;;;10.05;4.68;;;;;;;;;;5071615;28;20360;-74
2022/04/12 05:35:45;;;;;;;10.98;4.40;;;;;;;;;;5071509;28;20371;-74
2022/04/12 05:38:11;;;;;;;9.48;4.63;;;;;;;;;;5071690;28;20383;-74
2022/04/12 05:40:37;;;;;;;7.97;3.88;;;;;;;;;;5071542;28;20044;-74
2022/04/12 05:43:03;;;;;;;12.05;4.05;;;;;;;;;;5071348;28;20036;-74
2022/04/12 05:45:29;;;;;;;7.03;3.92;;;;;;;;;;5071458;28;20451;-74
2022/04/12 05:47:55;;;;;;;10.25;4.28;;;;;;;;;;5071448;28;20020;-74
2022/04/12 05:50:22;;;;;;;9.10;4.45;;;;;;;;;;5071422;28;20110;-75
2022/04/12 05:52:49;;;;;;;14.85;4.40;;;;;;;;;;5071371;28;20029;-75
2022/04/12 05:55:15;;;;;;;11.07;4.40;;;;;;;;;;5071254;28;20028;-74
2022/04/12 05:57:49;;;;;;;11.38;4.60;;;;;;;;;;5071311;28;20424;-74
2022/04/12 06:00:15;;;;;;;8.00;4.50;;;;;;;;;;5071366;28;20017;-74
2022/04/12 06:02:41;;;;;;;8.45;4.00;;;;;;;;;;5071320;28;20028;-74
2022/04/12 06:05:08;;;;;;;10.00;3.83;;;;;;;;;;5071333;28;20052;-74
2022/04/12 06:07:35;;;;;;;11.45;4.72;;;;;;;;;;5071067;28;20033;-74
2022/04/12 06:10:01;;;;;;;11.23;4.25;;;;;;;;;;5071255;28;20033;-75
2022/04/12 06:12:28;;;;;;;12.60;4.00;;;;;;;;;;5070991;28;20102;-74
2022/04/12 06:14:55;;;;;;;7.82;3.97;;;;;;;;;;5071119;28;20032;-74
2022/04/12 06:17:21;;;;;;;8.43;4.43;;;;;;;;;;5073943;28;20017;-75
2022/04/12 06:19:47;;;;;;;10.93;3.75;;;;;;;;;;5074835;28;20051;-75
2022/04/12 06:22:13;;;;;;;8.60;4.35;;;;;;;;;;5074731;28;20385;-74
2022/04/12 06:24:39;;;;;;;14.30;4.45;;;;;;;;;;5075100;28;20033;-75
2022/04/12 06:27:05;;;;;;;13.02;4.63;;;;;;;;;;5074650;28;20066;-75
2022/04/12 06:29:33;;;;;;;9.25;4.35;;;;;;;;;;5074670;28;20036;-75
2022/04/12 06:32:00;;;;;;;11.48;4.30;;;;;;;;;;5074472;28;20047;-74
2022/04/12 06:34:26;;;;;;;10.13;4.18;;;;;;;;;;5074616;28;20031;-75
2022/04/12 06:36:52;;;;;;;9.13;4.43;;;;;;;;;;5074403;28;20075;-75
2022/04/12 06:39:18;;;;;;;10.75;4.45;;;;;;;;;;5074541;28;20064;-75
2022/04/12 06:41:44;;;;;;;8.48;4.10;;;;;;;;;;5074357;28;20137;-75
2022/04/12 06:44:10;;;;;;;9.57;4.20;;;;;;;;;;5074385;28;20050;-75
2022/04/12 06:46:36;;;;;;;7.60;4.05;;;;;;;;;;5074430;28;20048;-75
2022/04/12 06:49:02;;;;;;;8.45;4.32;;;;;;;;;;5074379;28;20032;-75
2022/04/12 06:51:28;;;;;;;9.05;4.03;;;;;;;;;;5074134;28;20107;-75
2022/04/12 06:53:54;;;;;;;8.40;4.50;;;;;;;;;;5074115;28;20074;-75
2022/04/12 06:56:20;;;;;;;7.90;4.45;;;;;;;;;;5074050;28;20059;-75
2022/04/12 06:58:46;;;;;;;7.68;4.57;;;;;;;;;;5074227;28;20016;-75
2022/04/12 07:01:12;;;;;;;11.63;4.40;;;;;;;;;;5074432;28;20086;-75
2022/04/12 07:03:38;;;;;;;9.48;4.57;;;;;;;;;;5074305;28;20497;-75
2022/04/12 07:06:04;;;;;;;7.50;4.35;;;;;;;;;;5073917;28;20028;-75
2022/04/12 07:08:30;;;;;;;6.95;4.22;;;;;;;;;;5073598;28;20394;-74
2022/04/12 07:10:56;;;;;;;9.20;3.83;;;;;;;;;;5073732;28;20086;-75
2022/04/12 07:13:23;;;;;;;10.60;4.05;;;;;;;;;;5073806;28;20040;-75
2022/04/12 07:15:49;;;;;;;7.70;4.25;;;;;;;;;;5073779;28;20070;-75
2022/04/12 07:18:15;;;;;;;7.78;4.20;;;;;;;;;;5073789;28;20025;-75
2022/04/12 07:20:41;;;;;;;11.60;4.25;;;;;;;;;;5073475;28;20475;-75
2022/04/12 07:23:07;;;;;;;7.88;3.90;;;;;;;;;;5073715;28;20462;-75
2022/04/12 07:25:33;;;;;;;13.60;4.40;;;;;;;;;;5073762;28;20745;-75
2022/04/12 07:27:59;;;;;;;8.25;4.45;;;;;;;;;;5073014;28;20036;-75
2022/04/12 07:30:25;;;;;;;7.65;4.65;;;;;;;;;;5073777;28;20023;-75
2022/04/12 07:32:51;;;;;;;11.25;4.32;;;;;;;;;;5073648;28;20028;-75
2022/04/12 07:35:17;;;;;;;12.07;4.72;;;;;;;;;;5055555;28;20028;-75
2022/04/12 07:37:43;;;;;;;8.63;4.03;;;;;;;;;;5073282;28;20383;-75
2022/04/12 07:40:10;;;;;;;7.68;4.30;;;;;;;;;;5073212;28;20070;-75
2022/04/12 07:42:36;;;;;;;9.45;4.50;;;;;;;;;;5057601;28;20033;-74
2022/04/12 07:45:02;;;;;;;16.98;4.78;;;;;;;;;;5053192;28;20025;-75
2022/04/12 07:47:28;;;;;;;9.35;4.32;;;;;;;;;;5053238;28;20112;-75
2022/04/12 07:49:55;;;;;;;14.88;4.35;;;;;;;;;;5035214;28;20491;-75
2022/04/12 07:52:21;;;;;;;11.68;4.53;;;;;;;;;;5053063;28;20040;-75
2022/04/12 07:54:47;;;;;;;9.68;4.43;;;;;;;;;;5053068;28;20356;-75
2022/04/12 07:57:13;;;;;;;7.60;4.50;;;;;;;;;;5052924;28;20035;-75
2022/04/12 07:59:39;;;;;;;10.80;3.55;;;;;;;;;;5034987;28;20435;-74
2022/04/12 08:02:05;;;;;;;9.85;4.25;;;;;;;;;;5052984;28;20025;-75
2022/04/12 08:04:31;;;;;;;10.63;4.07;;;;;;;;;;5052886;28;20017;-74
2022/04/12 08:06:57;;;;;;;6.40;4.00;;;;;;;;;;5052850;28;20039;-74
2022/04/12 08:09:23;;;;;;;8.95;4.28;;;;;;;;;;5052670;28;20040;-75
2022/04/12 08:11:49;;;;;;;22.90;4.80;;;;;;;;;;5052586;28;20446;-75
2022/04/12 08:14:15;;;;;;;9.00;4.20;;;;;;;;;;5062591;28;20089;-75
2022/04/12 08:16:41;;;;;;;8.48;4.20;;;;;;;;;;5072708;28;20021;-75
2022/04/12 08:19:07;;;;;;;9.95;3.88;;;;;;;;;;5072487;28;20028;-75
2022/04/12 08:21:38;;;;;;;10.05;4.32;;;;;;;;;;5072410;28;20115;-75
2022/04/12 08:24:04;;;;;;;7.32;3.97;;;;;;;;;;5072560;28;20111;-75
2022/04/12 08:26:30;;;;;;;6.95;3.83;;;;;;;;;;5072260;28;20071;-75
2022/04/12 08:28:56;;;;;;;8.95;4.13;;;;;;;;;;5072414;28;20039;-75
2022/04/12 08:31:23;;;;;;;8.70;4.05;;;;;;;;;;5072181;28;20414;-75
2022/04/12 08:33:49;;;;;;;9.05;4.97;;;;;;;;;;5072275;28;20107;-74
2022/04/12 08:36:16;;;;;;;8.15;4.47;;;;;;;;;;5072149;28;20141;-75
2022/04/12 08:38:44;;;;;;;7.28;4.32;;;;;;;;;;5072250;28;20093;-75
2022/04/12 08:41:10;;;;;;;6.68;3.75;;;;;;;;;;5071197;28;20028;-75
2022/04/12 08:43:37;;;;;;;9.38;4.25;;;;;;;;;;5072227;28;20546;-75
2022/04/12 08:46:04;;;;;;;6.93;3.70;;;;;;;;;;5072089;28;20089;-75
2022/04/12 08:48:31;;;;;;;11.10;3.38;;;;;;;;;;5072096;28;20031;-75
2022/04/12 08:50:57;;;;;;;6.40;3.60;;;;;;;;;;5071744;28;20039;-75
2022/04/12 08:53:23;;;;;;;6.63;3.58;;;;;;;;;;5072053;28;20359;-75
2022/04/12 08:55:49;;;;;;;7.38;4.18;;;;;;;;;;5071811;28;20491;-75
2022/04/12 08:58:15;;;;;;;6.50;3.83;;;;;;;;;;5072088;28;20024;-75
2022/04/12 09:00:41;;;;;;;9.93;4.13;;;;;;;;;;5071916;28;20099;-75
2022/04/12 09:03:07;;;;;;;6.18;4.25;;;;;;;;;;5071770;28;20055;-75
2022/04/12 09:05:34;;;;;;;9.98;4.15;;;;;;;;;;5071903;28;20021;-75
2022/04/12 09:08:00;;;;;;;7.65;3.50;;;;;;;;;;5071653;28;20025;-75
2022/04/12 09:10:36;;;;;;;9.15;3.90;;;;;;;;;;5071780;28;20090;-75
2022/04/12 09:13:09;;;;;;;8.52;4.05;;;;;;;;;;5071609;28;20709;-75
2022/04/12 09:15:41;;;;;;;7.85;3.83;;;;;;;;;;5071737;28;20066;-75
2022/04/12 09:18:09;;;;;;;9.40;3.58;;;;;;;;;;5071679;28;20032;-74
2022/04/12 09:20:35;;;;;;;10.02;3.50;;;;;;;;;;5071623;28;20347;-75
2022/04/12 09:23:02;;;;;;;6.57;3.63;;;;;;;;;;5071557;28;20039;-75
2022/04/12 09:25:28;;;;;;;6.60;3.17;;;;;;;;;;5071524;28;20032;-75
2022/04/12 09:27:55;;;;;;;7.00;3.65;;;;;;;;;;5071529;28;20144;-75
2022/04/12 09:30:21;;;;;;;8.25;3.50;;;;;;;;;;5071503;28;20016;-75
2022/04/12 09:32:48;;;;;;;5.05;3.35;;;;;;;;;;5071615;28;20031;-75
2022/04/12 09:35:15;;;;;;;6.70;3.25;;;;;;;;;;5071521;28;20024;-75
2022/04/12 09:37:42;;;;;;;5.45;3.38;;;;;;;;;;5071516;28;20036;-75
2022/04/12 09:40:11;;;;;;;13.18;4.78;;;;;;;;;;5071465;28;20024;-75
2022/04/12 09:42:40;;;;;;;9.60;3.20;;;;;;;;;;5071279;28;20059;-75
2022/04/12 09:45:07;;;;;;;5.30;3.00;;;;;;;;;;5071491;28;20132;-75
2022/04/12 09:47:34;;;;;;;5.68;2.85;;;;;;;;;;5071401;28;20029;-75
2022/04/12 09:50:01;;;;;;;6.57;3.10;;;;;;;;;;5071406;28;20470;-75
2022/04/12 09:52:27;;;;;;;8.15;3.58;;;;;;;;;;5074291;28;20043;-75
2022/04/12 09:54:54;;;;;;;7.05;3.15;;;;;;;;;;5075368;28;20020;-75
2022/04/12 09:57:20;;;;;;;6.90;3.50;;;;;;;;;;5075186;28;20032;-75
2022/04/12 09:59:47;;;;;;;6.90;3.63;;;;;;;;;;5075282;28;20042;-75
2022/04/12 10:02:13;;;;;;;11.90;3.28;;;;;;;;;;5075143;28;20062;-75
2022/04/12 10:04:40;;;;;;;5.70;3.10;;;;;;;;;;5075014;28;20122;-75
2022/04/12 10:07:06;;;;;;;6.28;3.25;;;;;;;;;;5075077;28;20052;-75
2022/04/12 10:09:33;;;;;;;8.32;3.20;;;;;;;;;;5074890;28;20125;-75
2022/04/12 10:11:59;;;;;;;10.35;3.40;;;;;;;;;;5074815;28;20044;-75
2022/04/12 10:14:26;;;;;;;5.88;3.22;;;;;;;;;;5074802;28;20470;-75
2022/04/12 10:16:52;;;;;;;8.15;3.00;;;;;;;;;;5074869;28;20039;-75
2022/04/12 10:19:19;;;;;;;5.30;2.63;;;;;;;;;;5074793;28;20386;-75
2022/04/12 10:21:45;;;;;;;9.57;3.60;;;;;;;;;;5074874;28;20024;-75
2022/04/12 10:24:12;;;;;;;7.18;3.25;;;;;;;;;;5074971;28;20037;-75
2022/04/12 10:26:39;;;;;;;9.30;3.50;;;;;;;;;;5074665;28;20108;-75
2022/04/12 10:29:06;;;;;;;7.68;3.50;;;;;;;;;;5074796;28;20063;-75
2022/04/12 10:31:33;;;;;;;11.45;3.60;;;;;;;;;;5074502;28;20077;-75
2022/04/12 10:34:02;;;;;;;8.50;3.42;;;;;;;;;;5074651;28;20025;-75
2022/04/12 10:36:46;;;;;;;7.15;3.28;;;;;;;;;;5074522;28;20040;-75
2022/04/12 10:39:13;;;;;;;7.65;3.40;;;;;;;;;;5074464;28;20074;-75
2022/04/12 10:41:42;;;;;;;5.63;3.35;;;;;;;;;;5074272;28;20016;-75
2022/04/12 10:44:19;;;;;;;6.38;3.60;;;;;;;;;;5074406;28;20024;-75
2022/04/12 10:46:50;;;;;;;10.05;3.55;;;;;;;;;;5074482;28;20077;-75
2022/04/12 10:49:20;;;;;;;9.65;3.88;;;;;;;;;;5074407;28;20175;-75
2022/04/12 10:51:49;;;;;;;7.18;3.20;;;;;;;;;;5074271;28;20031;-75
2022/04/12 10:54:33;;;;;;;8.13;3.22;;;;;;;;;;5074256;28;20021;-75
2022/04/12 10:57:32;;;;;;;14.68;3.47;;;;;;;;;;5074145;28;20095;-75
2022/04/12 11:00:10;;;;;;;7.45;3.58;;;;;;;;;;4992466;28;20388;-75
2022/04/12 11:02:37;;;;;;;6.25;2.90;;;;;;;;;;4991418;28;20449;-75
2022/04/12 11:05:03;;;;;;;7.80;3.28;;;;;;;;;;4992197;28;20077;-75
2022/04/12 11:07:30;;;;;;;9.52;3.53;;;;;;;;;;4992353;28;20042;-75
2022/04/12 11:10:26;;;;;;;7.70;3.53;;;;;;;;;;4992088;28;20110;-75
2022/04/12 11:13:05;;;;;;;5.47;3.03;;;;;;;;;;4934165;29;20059;-75
2022/04/12 11:15:34;;;;;;;7.68;3.42;;;;;;;;;;4934126;29;20134;-75
2022/04/12 11:18:06;;;;;;;10.05;3.72;;;;;;;;;;4934402;29;20394;-75
2022/04/12 11:20:32;;;;;;;5.75;3.20;;;;;;;;;;4930774;29;20364;-75
2022/04/12 11:22:59;;;;;;;5.70;2.97;;;;;;;;;;4915057;29;20119;-75
2022/04/12 11:25:26;;;;;;;7.93;4.03;;;;;;;;;;4915008;29;20073;-75
2022/04/12 11:27:59;;;;;;;6.63;3.28;;;;;;;;;;4915204;29;20149;-75
2022/04/12 11:30:25;;;;;;;8.52;3.22;;;;;;;;;;4918607;29;20051;-75
2022/04/12 11:32:55;;;;;;;10.02;3.83;;;;;;;;;;4934110;29;20054;-75
2022/04/12 11:35:21;;;;;;;9.35;3.45;;;;;;;;;;4958287;28;20052;-75
2022/04/12 11:37:47;;;;;;;8.38;3.10;;;;;;;;;;4991838;28;20117;-75
2022/04/12 11:40:13;;;;;;;8.32;3.15;;;;;;;;;;4991728;28;20022;-75
2022/04/12 11:42:39;;;;;;;6.78;3.10;;;;;;;;;;4991391;28;20069;-75
2022/04/12 11:45:06;;;;;;;9.63;3.83;;;;;;;;;;4991751;28;20038;-75
2022/04/12 11:47:38;;;;;;;8.20;3.67;;;;;;;;;;4991631;28;20145;-75
2022/04/12 11:50:13;;;;;;;8.57;3.40;;;;;;;;;;5060925;28;20032;-75
2022/04/12 11:52:40;;;;;;;8.18;3.58;;;;;;;;;;5072892;28;20039;-75
2022/04/12 11:55:06;;;;;;;7.53;4.00;;;;;;;;;;5073072;28;20569;-75
2022/04/12 11:57:32;;;;;;;9.43;4.00;;;;;;;;;;5072937;28;20032;-75
2022/04/12 11:59:59;;;;;;;11.00;3.78;;;;;;;;;;5072951;28;20020;-75
2022/04/12 12:02:27;;;;;;;10.30;4.10;;;;;;;;;;5054839;28;20032;-75
2022/04/12 12:04:56;;;;;;;10.13;4.07;;;;;;;;;;5072768;28;20388;-75
2022/04/12 12:07:22;;;;;;;9.30;4.38;;;;;;;;;;5072703;28;20021;-75
2022/04/12 12:10:01;;;;;;;10.23;4.00;;;;;;;;;;5072602;28;20053;-75
2022/04/12 12:12:35;;;;;;;8.23;3.88;;;;;;;;;;5072526;28;20052;-75
2022/04/12 12:15:13;;;;;;;5.88;3.78;;;;;;;;;;5054258;28;20673;-75
2022/04/12 12:17:39;;;;;;;10.55;3.85;;;;;;;;;;5072679;28;20028;-75
2022/04/12 12:20:07;;;;;;;9.75;4.28;;;;;;;;;;5072581;28;20020;-74
2022/04/12 12:22:37;;;;;;;9.52;3.88;;;;;;;;;;5072589;28;20027;-75
2022/04/12 12:25:03;;;;;;;10.35;4.20;;;;;;;;;;5072572;28;20136;-75
2022/04/12 12:27:36;;;;;;;10.93;4.10;;;;;;;;;;5072428;28;20510;-75
2022/04/12 12:30:16;;;;;;;12.10;4.45;;;;;;;;;;5072297;28;20170;-74
2022/04/12 12:32:43;;;;;;;11.65;4.57;;;;;;;;;;5072346;28;20028;-74
2022/04/12 12:35:10;;;;;;;11.18;3.95;;;;;;;;;;5072390;28;20090;-75
2022/04/12 12:37:37;;;;;;;8.60;3.97;;;;;;;;;;5072384;28;20020;-75
2022/04/12 12:40:05;;;;;;;11.57;4.45;;;;;;;;;;5072243;28;20020;-75
2022/04/12 12:42:37;;;;;;;8.27;4.15;;;;;;;;;;5057620;28;20044;-75
2022/04/12 12:45:03;;;;;;;;;;;;;;;;;;5052743;28;20029;-73
2022/04/12 12:47:35;;;;;;;9.48;3.85;;;;;;;;;;5052251;28;19915;-75
2022/04/12 12:50:01;;;;;;;7.28;4.13;;;;;;;;;;5052126;28;20108;-75
2022/04/12 12:52:30;;;;;;;9.55;4.10;;;;;;;;;;5052073;28;20099;-75
2022/04/12 12:54:56;;;;;;;10.70;3.65;;;;;;;;;;5051982;28;20128;-75
2022/04/12 12:57:39;;;;;;;10.82;4.75;;;;;;;;;;5052041;28;20021;-75
2022/04/12 13:00:06;;;;;;;6.70;3.88;;;;;;;;;;5052177;28;20150;-75
2022/04/12 13:02:36;;;;;;;11.80;3.92;;;;;;;;;;5051927;28;20056;-75
2022/04/12 13:05:04;;;;;;;5.68;3.22;;;;;;;;;;5051932;28;20036;-75
2022/04/12 13:07:31;;;;;;;9.65;3.88;;;;;;;;;;5051797;28;20497;-75
2022/04/12 13:10:05;;;;;;;7.95;4.35;;;;;;;;;;5051641;28;20047;-75
2022/04/12 13:12:31;;;;;;;13.60;4.15;;;;;;;;;;5051739;28;20111;-75
2022/04/12 13:14:57;;;;;;;10.68;4.20;;;;;;;;;;5049433;28;20445;-75
2022/04/12 13:17:23;;;;;;;8.45;4.30;;;;;;;;;;5071821;28;20052;-75
2022/04/12 13:19:49;;;;;;;9.30;3.90;;;;;;;;;;5071767;28;20048;-75
2022/04/12 13:22:15;;;;;;;9.82;4.70;;;;;;;;;;5071480;28;20033;-75
2022/04/12 13:24:41;;;;;;;13.55;4.65;;;;;;;;;;5071561;28;20040;-75
2022/04/12 13:27:08;;;;;;;9.77;3.95;;;;;;;;;;5076971;28;20040;-75
2022/04/12 13:29:34;;;;;;;11.35;4.55;;;;;;;;;;5078451;28;20025;-75
2022/04/12 13:32:00;;;;;;;13.27;4.65;;;;;;;;;;5060262;28;20362;-75
2022/04/12 13:34:26;;;;;;;13.90;4.80;;;;;;;;;;5078452;28;20027;-75
2022/04/12 13:36:52;;;;;;;11.95;4.93;;;;;;;;;;5078302;28;20063;-75
2022/04/12 13:39:18;;;;;;;11.88;4.47;;;;;;;;;;5078283;28;20028;-75
2022/04/12 13:41:45;;;;;;;13.05;4.60;;;;;;;;;;5070062;28;20029;-75
2022/04/12 13:44:11;;;;;;;8.20;4.13;;;;;;;;;;5058175;28;20025;-75
2022/04/12 13:46:37;;;;;;;11.25;4.40;;;;;;;;;;5058257;28;20059;-75
2022/04/12 13:49:04;;;;;;;10.13;4.30;;;;;;;;;;5058128;28;20029;-75
2022/04/12 13:51:30;;;;;;;10.50;3.90;;;;;;;;;;5058031;28;20037;-75
2022/04/12 13:53:56;;;;;;;10.85;4.10;;;;;;;;;;5058222;28;20078;-75
2022/04/12 13:56:22;;;;;;;11.20;4.10;;;;;;;;;;5058038;28;20357;-75
2022/04/12 13:58:48;;;;;;;12.32;4.20;;;;;;;;;;5058237;28;20086;-75
2022/04/12 14:01:15;;;;;;;13.15;4.40;;;;;;;;;;5058172;28;20479;-75
2022/04/12 14:03:41;;;;;;;9.82;4.10;;;;;;;;;;5058118;28;20103;-75
2022/04/12 14:06:07;;;;;;;13.02;4.00;;;;;;;;;;5058494;28;20033;-75
2022/04/12 14:08:33;;;;;;;13.48;4.47;;;;;;;;;;5058506;28;20028;-76
2022/04/12 14:11:00;;;;;;;11.45;4.68;;;;;;;;;;5058241;28;20028;-75
2022/04/12 14:13:26;;;;;;;8.50;4.57;;;;;;;;;;5058039;28;20104;-75
2022/04/12 14:15:53;;;;;;;10.38;4.53;;;;;;;;;;5058088;28;20032;-75
2022/04/12 14:18:20;;;;;;;9.48;4.30;;;;;;;;;;5058012;28;20028;-75
2022/04/12 14:20:46;;;;;;;11.18;4.93;;;;;;;;;;5071800;28;20020;-75
2022/04/12 14:23:12;;;;;;;10.60;4.50;;;;;;;;;;5077963;28;20028;-75
2022/04/12 14:25:39;;;;;;;11.15;5.53;;;;;;;;;;5077757;28;20434;-75
2022/04/12 14:28:08;;;;;;;8.85;4.90;;;;;;;;;;5077866;28;20417;-75
2022/04/12 14:30:34;;;;;;;10.02;4.70;;;;;;;;;;5077712;28;20017;-76
2022/04/12 14:33:01;;;;;;;12.73;4.93;;;;;;;;;;5077770;28;20025;-76
2022/04/12 14:35:27;;;;;;;15.32;5.38;;;;;;;;;;5077764;28;20436;-75
2022/04/12 14:37:53;;;;;;;11.35;5.20;;;;;;;;;;5075945;28;20459;-75
2022/04/12 14:40:19;;;;;;;9.25;4.60;;;;;;;;;;5074467;28;20081;-75